createdAt,value
2023-11-24T00:00:00.528Z,76
2023-11-24T00:10:00.358Z,76
2023-11-24T00:20:00.355Z,76
2023-11-24T00:30:00.563Z,75
2023-11-24T00:40:00.563Z,75
2023-11-24T00:50:00.430Z,74
2023-11-24T01:00:00.470Z,74
2023-11-24T01:10:00.586Z,73
2023-11-24T01:20:00.521Z,73
2023-11-24T01:30:00.337Z,74
2023-11-24T01:40:00.311Z,74
2023-11-24T01:50:00.326Z,75
2023-11-24T02:00:00.487Z,76
2023-11-24T02:10:00.332Z,74
2023-11-24T02:20:00.528Z,73
2023-11-24T02:30:00.583Z,71
2023-11-24T02:40:00.619Z,69
2023-11-24T02:50:00.485Z,69
2023-11-24T03:00:00.420Z,71
2023-11-24T03:10:00.347Z,70
2023-11-24T03:20:00.309Z,70
2023-11-24T03:30:00.540Z,71
2023-11-24T03:40:00.348Z,72
2023-11-24T03:50:00.269Z,73
2023-11-24T04:00:00.256Z,74
2023-11-24T04:10:00.451Z,75
2023-11-24T04:20:00.297Z,76
2023-11-24T04:30:00.294Z,77
2023-11-24T04:40:01.195Z,79
2023-11-24T04:50:00.844Z,79
2023-11-24T05:00:00.704Z,78
2023-11-24T05:10:01.933Z,80
2023-11-24T05:20:00.394Z,80
2023-11-24T05:30:00.451Z,80
2023-11-24T05:40:00.819Z,83
2023-11-24T05:50:00.339Z,77
2023-11-24T06:00:00.863Z,73
2023-11-24T06:10:00.534Z,71
2023-11-24T06:20:00.524Z,68
2023-11-24T06:30:00.287Z,68
2023-11-24T06:40:00.722Z,67
2023-11-24T06:50:00.865Z,67
2023-11-24T07:00:00.371Z,68
2023-11-24T07:10:00.529Z,68
2023-11-24T07:20:00.347Z,69
2023-11-24T07:30:00.499Z,69
2023-11-24T07:40:00.578Z,70
2023-11-24T07:50:00.498Z,71
2023-11-24T08:00:00.523Z,69
2023-11-24T08:10:00.367Z,66
2023-11-24T08:20:00.306Z,65
2023-11-24T08:30:00.278Z,63
2023-11-24T08:40:00.512Z,62
2023-11-24T08:50:01.053Z,63
2023-11-24T09:00:00.633Z,60
2023-11-24T09:10:00.447Z,59
2023-11-24T09:20:00.267Z,59
2023-11-24T09:30:00.581Z,57
2023-11-24T09:40:00.388Z,55
2023-11-24T09:50:00.332Z,57
2023-11-24T10:00:00.423Z,60
2023-11-24T10:10:00.317Z,60
2023-11-24T10:20:00.322Z,60
2023-11-24T10:30:00.244Z,59
2023-11-24T10:40:00.356Z,59
2023-11-24T10:50:00.295Z,59
2023-11-24T11:00:00.333Z,60
2023-11-24T11:10:00.534Z,60
2023-11-24T11:20:00.680Z,60
2023-11-24T11:30:00.843Z,61
2023-11-24T11:40:00.831Z,60
2023-11-24T11:50:00.315Z,60
2023-11-24T12:00:00.389Z,60
2023-11-24T12:10:00.365Z,60
2023-11-24T12:20:00.376Z,60
2023-11-24T12:30:00.319Z,59
2023-11-24T12:40:00.378Z,60
2023-11-24T12:50:00.358Z,61
2023-11-24T13:00:00.695Z,63
2023-11-24T13:10:00.628Z,64
2023-11-24T13:20:00.577Z,65
2023-11-24T13:30:00.530Z,65
2023-11-24T13:40:00.405Z,66
2023-11-24T13:50:00.348Z,66
2023-11-24T14:00:00.423Z,68
2023-11-24T14:10:01.077Z,69
2023-11-24T14:20:00.478Z,70
2023-11-24T14:30:00.626Z,71
2023-11-24T14:40:00.368Z,71
2023-11-24T14:50:00.323Z,70
2023-11-24T15:00:00.238Z,69
2023-11-24T15:10:00.615Z,70
2023-11-24T15:20:00.247Z,71
2023-11-24T15:30:00.475Z,71
2023-11-24T15:40:00.398Z,72
2023-11-24T15:50:00.418Z,73
2023-11-24T16:00:00.544Z,73
2023-11-24T16:10:00.370Z,73
2023-11-24T16:20:00.358Z,74
2023-11-24T16:30:00.685Z,73
2023-11-24T16:40:01.455Z,74
2023-11-24T16:50:00.532Z,74
2023-11-24T17:00:00.563Z,74
2023-11-24T17:10:00.377Z,73
2023-11-24T17:20:00.564Z,72
2023-11-24T17:30:00.539Z,70
2023-11-24T17:40:00.487Z,69
2023-11-24T17:50:01.134Z,69
2023-11-24T18:00:00.426Z,69
2023-11-24T18:10:00.377Z,69
2023-11-24T18:20:00.460Z,71
2023-11-24T18:30:00.583Z,71
2023-11-24T18:40:03.746Z,71
2023-11-24T18:50:00.315Z,70
2023-11-24T19:00:00.709Z,70
2023-11-24T19:10:00.397Z,70
2023-11-24T19:20:00.523Z,69
2023-11-24T19:30:00.493Z,70
2023-11-24T19:40:00.591Z,70
2023-11-24T19:50:00.431Z,71
2023-11-24T20:00:00.572Z,70
2023-11-24T20:10:00.331Z,71
2023-11-24T20:20:00.428Z,71
2023-11-24T20:30:00.548Z,71
2023-11-24T20:40:00.698Z,72
2023-11-24T20:50:00.422Z,72
2023-11-24T21:00:00.264Z,71
2023-11-24T21:10:00.531Z,71
2023-11-24T21:20:00.268Z,71
2023-11-24T21:30:00.382Z,70
2023-11-24T21:40:00.351Z,71
2023-11-24T21:50:00.257Z,72
2023-11-24T22:00:00.752Z,73
2023-11-24T22:10:00.546Z,72
2023-11-24T22:20:00.376Z,71
2023-11-24T22:30:04.613Z,70
2023-11-24T22:40:00.529Z,69
2023-11-24T22:50:00.316Z,68
2023-11-24T23:00:00.590Z,69
2023-11-24T23:10:00.335Z,69
2023-11-24T23:20:00.350Z,69
2023-11-24T23:30:00.701Z,69
2023-11-24T23:40:00.387Z,68
2023-11-24T23:50:00.272Z,69
